createdAt,value
2022-09-11T00:01:08.832Z,92.90
2022-09-11T00:03:37.250Z,92.80
2022-09-11T00:06:06.323Z,92.70
2022-09-11T00:08:35.652Z,92.90
2022-09-11T00:11:05.698Z,92.90
2022-09-11T00:13:33.584Z,92.80
2022-09-11T00:16:03.026Z,92.50
2022-09-11T00:18:30.903Z,92.40
2022-09-11T00:20:59.330Z,92.30
2022-09-11T00:23:28.341Z,92.30
2022-09-11T00:26:01.789Z,92.20
2022-09-11T00:28:29.938Z,92.30
2022-09-11T00:30:59.770Z,92.50
2022-09-11T00:33:28.543Z,92.70
2022-09-11T00:35:58.261Z,93.00
2022-09-11T00:38:27.044Z,93.00
2022-09-11T00:40:55.628Z,93.20
2022-09-11T00:43:25.014Z,93.20
2022-09-11T00:45:57.427Z,93.20
2022-09-11T00:48:29.836Z,93.20
2022-09-11T00:50:59.301Z,93.20
2022-09-11T00:53:30.264Z,93.20
2022-09-11T00:56:02.080Z,92.80
2022-09-11T00:58:38.148Z,92.60
2022-09-11T01:01:06.107Z,92.80
2022-09-11T01:03:33.989Z,92.80
2022-09-11T01:06:02.085Z,92.90
2022-09-11T01:08:29.885Z,92.70
2022-09-11T01:11:05.972Z,92.60
2022-09-11T01:13:42.587Z,92.20
2022-09-11T01:16:17.234Z,92.00
2022-09-11T01:18:54.251Z,91.80
2022-09-11T01:21:42.261Z,91.40
2022-09-11T01:24:32.258Z,91.00
2022-09-11T01:27:18.063Z,90.90
2022-09-11T01:29:51.996Z,90.80
2022-09-11T01:32:24.510Z,90.70
2022-09-11T01:34:57.150Z,90.60
2022-09-11T01:37:31.182Z,90.60
2022-09-11T01:40:06.726Z,90.70
2022-09-11T01:42:39.574Z,90.70
2022-09-11T01:45:10.329Z,90.70
2022-09-11T01:47:39.172Z,90.70
2022-09-11T01:50:10.487Z,90.50
2022-09-11T01:52:45.816Z,90.40
2022-09-11T01:55:18.986Z,90.50
2022-09-11T01:57:52.392Z,90.50
2022-09-11T02:00:22.394Z,90.60
2022-09-11T02:02:59.000Z,90.60
2022-09-11T02:05:30.455Z,90.40
2022-09-11T02:08:05.141Z,90.20
2022-09-11T02:10:37.577Z,90.60
2022-09-11T02:13:12.840Z,90.50
2022-09-11T02:15:47.672Z,90.60
2022-09-11T02:18:24.575Z,90.40
2022-09-11T02:20:53.539Z,90.30
2022-09-11T02:23:22.010Z,90.60
2022-09-11T02:25:53.417Z,90.50
2022-09-11T02:28:21.349Z,90.60
2022-09-11T02:30:51.035Z,90.80
2022-09-11T02:33:29.514Z,91.00
2022-09-11T02:36:09.451Z,91.00
2022-09-11T02:38:46.845Z,90.90
2022-09-11T02:41:23.366Z,90.70
2022-09-11T02:43:59.676Z,90.90
2022-09-11T02:46:43.549Z,91.10
2022-09-11T02:49:20.558Z,90.90
2022-09-11T02:51:56.172Z,90.80
2022-09-11T02:54:34.096Z,90.80
2022-09-11T02:57:09.569Z,90.60
2022-09-11T02:59:43.230Z,91.10
2022-09-11T03:02:15.725Z,93.00
2022-09-11T03:04:43.924Z,92.40
2022-09-11T03:07:12.009Z,93.60
2022-09-11T03:09:39.796Z,94.00
2022-09-11T03:12:15.362Z,97.60
2022-09-11T03:14:43.796Z,99.40
2022-09-11T03:17:13.320Z,96.80
2022-09-11T03:19:41.886Z,95.20
2022-09-11T03:22:09.641Z,94.70
2022-09-11T03:24:39.518Z,94.00
2022-09-11T03:27:07.734Z,93.70
2022-09-11T03:29:35.594Z,93.40
2022-09-11T03:32:03.775Z,93.20
2022-09-11T03:34:33.329Z,94.00
2022-09-11T03:37:02.095Z,94.10
2022-09-11T03:39:30.206Z,94.20
2022-09-11T03:42:00.987Z,93.70
2022-09-11T03:44:29.239Z,95.10
2022-09-11T03:46:57.169Z,95.00
2022-09-11T03:49:25.821Z,94.70
2022-09-11T03:51:54.903Z,94.80
2022-09-11T03:54:22.732Z,94.30
2022-09-11T03:56:52.206Z,95.30
2022-09-11T03:59:21.617Z,94.20
2022-09-11T04:01:50.629Z,93.70
2022-09-11T04:04:18.756Z,93.40
2022-09-11T04:06:46.949Z,93.50
2022-09-11T04:09:17.095Z,93.20
2022-09-11T04:11:44.914Z,92.40
2022-09-11T04:14:22.438Z,92.60
2022-09-11T04:16:50.993Z,92.30
2022-09-11T04:19:21.177Z,91.90
2022-09-11T04:21:49.092Z,91.80
2022-09-11T04:24:18.870Z,91.50
2022-09-11T04:26:47.828Z,91.70
2022-09-11T04:29:22.401Z,92.00
2022-09-11T04:31:51.216Z,92.40
2022-09-11T04:34:20.106Z,92.00
2022-09-11T04:36:47.941Z,92.50
2022-09-11T04:39:22.131Z,92.50
2022-09-11T04:41:50.141Z,95.30
2022-09-11T04:44:20.578Z,96.00
2022-09-11T04:46:48.562Z,93.10
2022-09-11T04:49:16.989Z,95.10
2022-09-11T04:51:47.359Z,95.70
2022-09-11T04:54:21.005Z,96.20
2022-09-11T04:56:50.779Z,94.50
2022-09-11T04:59:22.222Z,93.30
2022-09-11T05:02:12.780Z,92.90
2022-09-11T05:04:43.960Z,93.70
2022-09-11T05:07:13.409Z,95.80
2022-09-11T05:09:43.295Z,95.20
2022-09-11T05:12:13.809Z,94.50
2022-09-11T05:14:42.250Z,94.00
2022-09-11T05:17:10.002Z,93.30
2022-09-11T05:19:41.620Z,92.70
2022-09-11T05:22:10.174Z,91.50
2022-09-11T05:24:41.989Z,95.80
2022-09-11T05:27:09.952Z,94.50
2022-09-11T05:29:40.516Z,95.20
2022-09-11T05:32:13.321Z,93.50
2022-09-11T05:34:42.473Z,92.60
2022-09-11T05:37:12.551Z,92.90
2022-09-11T05:39:44.788Z,92.40
2022-09-11T05:42:15.316Z,93.60
2022-09-11T05:44:48.613Z,93.50
2022-09-11T05:47:17.096Z,93.10
2022-09-11T05:49:49.554Z,94.00
2022-09-11T05:52:17.493Z,93.10
2022-09-11T05:54:47.013Z,92.60
2022-09-11T05:57:15.898Z,91.90
2022-09-11T05:59:44.393Z,92.10
2022-09-11T06:02:14.100Z,93.40
2022-09-11T06:04:47.440Z,93.80
2022-09-11T06:07:15.284Z,93.30
2022-09-11T06:09:46.314Z,93.30
2022-09-11T06:12:14.699Z,94.20
2022-09-11T06:14:44.285Z,93.70
2022-09-11T06:17:13.527Z,93.50
2022-09-11T06:19:41.349Z,93.20
2022-09-11T06:22:09.127Z,92.60
2022-09-11T06:24:41.958Z,92.80
2022-09-11T06:27:09.762Z,93.30
2022-09-11T06:29:40.977Z,92.40
2022-09-11T06:32:08.880Z,91.80
2022-09-11T06:34:40.912Z,91.50
2022-09-11T06:37:11.929Z,91.30
2022-09-11T06:39:39.831Z,91.80
2022-09-11T06:42:10.585Z,92.40
2022-09-11T06:44:38.373Z,92.60
2022-09-11T06:47:07.268Z,92.20
2022-09-11T06:49:36.849Z,93.00
2022-09-11T06:52:24.889Z,93.20
2022-09-11T06:55:16.041Z,92.50
2022-09-11T06:57:51.196Z,92.60
2022-09-11T07:00:23.918Z,92.40
2022-09-11T07:02:52.922Z,92.40
2022-09-11T07:05:22.287Z,92.40
2022-09-11T07:07:53.417Z,92.90
2022-09-11T07:10:21.265Z,93.90
2022-09-11T07:12:55.279Z,93.00
2022-09-11T07:15:23.320Z,93.40
2022-09-11T07:17:51.258Z,92.70
2022-09-11T07:20:20.661Z,92.60
2022-09-11T07:22:48.789Z,92.40
2022-09-11T07:25:19.316Z,92.30
2022-09-11T07:27:48.024Z,92.00
2022-09-11T07:30:16.531Z,92.00
2022-09-11T07:32:46.640Z,94.70
2022-09-11T07:35:17.425Z,95.70
2022-09-11T07:37:50.614Z,96.60
2022-09-11T07:40:24.177Z,96.20
2022-09-11T07:42:52.197Z,94.90
2022-09-11T07:45:22.867Z,95.10
2022-09-11T07:47:51.085Z,94.40
2022-09-11T07:50:18.919Z,93.30
2022-09-11T07:52:46.936Z,93.10
2022-09-11T07:55:16.053Z,92.60
2022-09-11T07:57:46.553Z,93.40
2022-09-11T08:00:16.689Z,92.20
2022-09-11T08:02:59.098Z,92.70
2022-09-11T08:05:33.732Z,92.20
2022-09-11T08:08:10.162Z,92.30
2022-09-11T08:10:40.802Z,92.40
2022-09-11T08:13:13.063Z,92.40
2022-09-11T08:15:48.201Z,91.70
2022-09-11T08:18:16.507Z,91.80
2022-09-11T08:20:44.515Z,91.30
2022-09-11T08:23:12.845Z,90.80
2022-09-11T08:25:40.651Z,90.50
2022-09-11T08:28:11.709Z,91.00
2022-09-11T08:30:39.964Z,90.70
2022-09-11T08:33:10.625Z,90.60
2022-09-11T08:35:39.026Z,90.30
2022-09-11T08:38:06.862Z,90.20
2022-09-11T08:40:38.790Z,90.40
2022-09-11T08:43:15.966Z,90.30
2022-09-11T08:45:49.752Z,90.40
2022-09-11T08:48:17.647Z,90.60
2022-09-11T08:50:45.438Z,90.50
2022-09-11T08:53:18.803Z,90.40
2022-09-11T08:55:51.733Z,90.30
2022-09-11T08:58:29.129Z,90.30
2022-09-11T09:01:08.804Z,90.20
2022-09-11T09:04:06.688Z,90.00
2022-09-11T09:06:47.258Z,89.90
2022-09-11T09:09:25.524Z,89.40
2022-09-11T09:11:59.878Z,90.40
2022-09-11T09:14:53.758Z,90.30
2022-09-11T09:17:25.979Z,91.00
2022-09-11T09:20:01.351Z,90.60
2022-09-11T09:22:39.225Z,90.00
2022-09-11T09:25:12.804Z,89.30
2022-09-11T09:27:46.339Z,89.10
2022-09-11T09:30:18.231Z,89.40
2022-09-11T09:32:53.009Z,89.20
2022-09-11T09:35:24.683Z,88.50
2022-09-11T09:37:54.433Z,90.10
2022-09-11T09:40:26.255Z,90.00
2022-09-11T09:43:12.103Z,90.60
2022-09-11T09:45:49.456Z,90.30
2022-09-11T09:48:17.636Z,89.50
2022-09-11T09:50:45.693Z,88.90
2022-09-11T09:53:21.110Z,89.50
2022-09-11T09:55:51.959Z,89.80
2022-09-11T09:58:20.041Z,90.10
2022-09-11T10:00:49.114Z,89.50
2022-09-11T10:03:21.717Z,90.00
2022-09-11T10:05:53.153Z,90.10
2022-09-11T10:08:34.544Z,90.00
2022-09-11T10:11:04.652Z,90.00
2022-09-11T10:13:33.541Z,90.10
2022-09-11T10:16:05.176Z,89.30
2022-09-11T10:18:42.651Z,89.70
2022-09-11T10:21:24.022Z,89.70
2022-09-11T10:23:54.312Z,89.30
2022-09-11T10:26:27.405Z,89.90
2022-09-11T10:28:56.825Z,90.00
2022-09-11T10:31:26.452Z,89.20
2022-09-11T10:33:57.218Z,88.30
2022-09-11T10:36:27.036Z,87.80
2022-09-11T10:38:56.517Z,87.00
2022-09-11T10:41:26.053Z,88.00
2022-09-11T10:43:58.769Z,86.30
2022-09-11T10:46:39.296Z,86.30
2022-09-11T10:49:21.737Z,85.30
2022-09-11T10:52:01.779Z,85.50
2022-09-11T10:54:41.126Z,85.00
2022-09-11T10:57:18.035Z,84.80
2022-09-11T10:59:56.778Z,85.70
2022-09-11T11:02:31.629Z,83.90
2022-09-11T11:05:03.772Z,82.50
2022-09-11T11:07:51.130Z,83.80
2022-09-11T11:10:28.187Z,81.30
2022-09-11T11:13:13.293Z,83.30
2022-09-11T11:15:57.415Z,82.80
2022-09-11T11:18:47.470Z,80.60
2022-09-11T11:21:28.694Z,79.80
2022-09-11T11:24:07.192Z,81.50
2022-09-11T11:26:49.952Z,82.20
2022-09-11T11:29:40.271Z,81.00
2022-09-11T11:32:20.668Z,80.00
2022-09-11T11:35:08.096Z,82.00
2022-09-11T11:37:40.560Z,80.40
2022-09-11T11:40:18.578Z,80.90
2022-09-11T11:42:55.933Z,80.30
2022-09-11T11:45:31.826Z,80.40
2022-09-11T11:48:02.404Z,80.30
2022-09-11T11:50:38.383Z,78.40
2022-09-11T11:53:12.254Z,77.50
2022-09-11T11:55:47.908Z,78.40
2022-09-11T11:58:24.047Z,77.90
2022-09-11T12:00:59.760Z,78.80
2022-09-11T12:03:32.919Z,75.50
2022-09-11T12:06:02.968Z,78.40
2022-09-11T12:08:30.809Z,77.80
2022-09-11T12:11:02.749Z,77.60
2022-09-11T12:13:34.417Z,78.20
2022-09-11T12:16:11.470Z,77.40
2022-09-11T12:18:42.116Z,78.50
2022-09-11T12:21:36.666Z,77.00
2022-09-11T12:24:15.185Z,76.10
2022-09-11T12:26:42.986Z,74.10
2022-09-11T12:29:49.687Z,76.10
2022-09-11T12:32:28.928Z,76.20
2022-09-11T12:35:15.909Z,77.20
2022-09-11T12:37:53.552Z,78.30
2022-09-11T12:40:32.201Z,78.20
2022-09-11T12:43:18.285Z,77.00
2022-09-11T12:45:48.148Z,76.80
2022-09-11T12:48:18.021Z,76.50
2022-09-11T12:50:55.250Z,76.30
2022-09-11T12:53:27.737Z,76.50
2022-09-11T12:55:59.881Z,76.50
2022-09-11T12:58:33.939Z,76.70
2022-09-11T13:01:06.771Z,77.10
2022-09-11T13:03:35.217Z,76.90
2022-09-11T13:06:07.657Z,77.10
2022-09-11T13:08:46.087Z,77.40
2022-09-11T13:11:37.246Z,78.10
2022-09-11T13:14:45.810Z,77.50
2022-09-11T13:17:16.654Z,78.50
2022-09-11T13:19:44.428Z,78.80
2022-09-11T13:22:26.349Z,78.80
2022-09-11T13:25:08.867Z,78.10
2022-09-11T13:27:39.308Z,76.40
2022-09-11T13:30:08.774Z,77.20
2022-09-11T13:32:36.958Z,76.20
2022-09-11T13:35:10.994Z,77.50
2022-09-11T13:37:42.939Z,75.80
2022-09-11T13:40:20.068Z,77.40
2022-09-11T13:42:48.938Z,76.80
2022-09-11T13:45:19.106Z,76.40
2022-09-11T13:47:47.793Z,77.40
2022-09-11T13:50:18.381Z,77.80
2022-09-11T13:52:47.779Z,78.10
2022-09-11T13:55:20.270Z,78.10
2022-09-11T13:57:56.217Z,78.10
2022-09-11T14:00:45.349Z,78.40
2022-09-11T14:03:22.862Z,77.80
2022-09-11T14:05:53.795Z,77.90
2022-09-11T14:08:32.412Z,77.30
2022-09-11T14:11:07.076Z,76.70
2022-09-11T14:13:43.309Z,77.70
2022-09-11T14:16:22.797Z,77.70
2022-09-11T14:18:54.045Z,77.90
2022-09-11T14:21:25.345Z,78.00
2022-09-11T14:23:54.857Z,77.50
2022-09-11T14:26:25.585Z,79.20
2022-09-11T14:29:05.039Z,79.80
2022-09-11T14:31:40.886Z,80.30
2022-09-11T14:34:14.660Z,80.20
2022-09-11T14:36:45.518Z,80.00
2022-09-11T14:39:18.183Z,80.30
2022-09-11T14:41:47.370Z,79.90
2022-09-11T14:44:17.392Z,80.00
2022-09-11T14:46:45.242Z,80.60
2022-09-11T14:49:13.039Z,81.10
2022-09-11T14:51:41.710Z,82.40
2022-09-11T14:54:14.996Z,82.50
2022-09-11T14:56:42.941Z,82.00
2022-09-11T14:59:12.309Z,81.50
2022-09-11T15:01:40.084Z,80.80
2022-09-11T15:04:11.114Z,81.40
2022-09-11T15:06:38.934Z,80.60
2022-09-11T15:09:06.732Z,80.80
2022-09-11T15:11:39.218Z,81.10
2022-09-11T15:14:27.818Z,80.90
2022-09-11T15:16:58.098Z,80.50
2022-09-11T15:19:26.342Z,80.60
2022-09-11T15:21:55.424Z,79.90
2022-09-11T15:24:23.830Z,80.10
2022-09-11T15:26:52.682Z,79.60
2022-09-11T15:29:21.750Z,79.20
2022-09-11T15:31:50.164Z,79.90
2022-09-11T15:34:19.353Z,80.20
2022-09-11T15:36:48.701Z,79.80
2022-09-11T15:39:18.363Z,79.70
2022-09-11T15:41:47.337Z,79.70
2022-09-11T15:44:19.822Z,79.70
2022-09-11T15:46:48.224Z,79.40
2022-09-11T15:49:16.121Z,79.30
2022-09-11T15:51:45.341Z,79.60
2022-09-11T15:54:14.105Z,79.50
2022-09-11T15:56:42.125Z,79.30
2022-09-11T15:59:11.625Z,79.50
2022-09-11T16:01:39.939Z,79.70
2022-09-11T16:04:09.838Z,79.60
2022-09-11T16:06:39.406Z,79.50
2022-09-11T16:09:10.535Z,79.20
2022-09-11T16:11:40.833Z,79.30
2022-09-11T16:14:09.123Z,79.20
2022-09-11T16:16:37.600Z,79.10
2022-09-11T16:19:05.334Z,79.20
2022-09-11T16:21:33.553Z,79.20
2022-09-11T16:24:04.132Z,79.50
2022-09-11T16:26:33.486Z,79.40
2022-09-11T16:29:02.039Z,79.30
2022-09-11T16:31:29.960Z,79.10
2022-09-11T16:33:57.838Z,79.40
2022-09-11T16:36:25.669Z,79.80
2022-09-11T16:38:54.774Z,79.70
2022-09-11T16:41:23.575Z,79.90
2022-09-11T16:43:54.036Z,79.60
2022-09-11T16:46:24.037Z,79.70
2022-09-11T16:48:54.988Z,80.10
2022-09-11T16:51:23.644Z,80.40
2022-09-11T16:53:51.839Z,80.50
2022-09-11T16:56:22.137Z,80.90
2022-09-11T16:58:50.183Z,81.10
2022-09-11T17:01:21.563Z,80.80
2022-09-11T17:03:51.652Z,81.00
2022-09-11T17:06:20.998Z,81.00
2022-09-11T17:08:51.276Z,81.20
2022-09-11T17:11:21.519Z,81.00
2022-09-11T17:13:50.404Z,81.30
2022-09-11T17:16:21.622Z,81.60
2022-09-11T17:18:50.401Z,81.70
2022-09-11T17:21:18.209Z,81.60
2022-09-11T17:23:46.396Z,81.80
2022-09-11T17:26:16.736Z,81.80
2022-09-11T17:28:47.234Z,81.80
2022-09-11T17:31:17.489Z,82.10
2022-09-11T17:33:47.180Z,82.20
2022-09-11T17:36:17.273Z,82.40
2022-09-11T17:38:46.537Z,83.10
2022-09-11T17:41:14.807Z,82.90
2022-09-11T17:43:42.999Z,83.30
2022-09-11T17:46:12.358Z,83.50
2022-09-11T17:48:41.866Z,84.00
2022-09-11T17:51:12.952Z,84.30
2022-09-11T17:53:44.396Z,84.50
2022-09-11T17:56:14.290Z,84.50
2022-09-11T17:58:44.730Z,84.40
2022-09-11T18:01:16.840Z,84.70
2022-09-11T18:03:45.365Z,84.50
2022-09-11T18:06:23.047Z,84.90
2022-09-11T18:08:50.817Z,84.90
2022-09-11T18:11:18.814Z,85.30
2022-09-11T18:13:46.597Z,85.80
2022-09-11T18:16:14.908Z,85.90
2022-09-11T18:18:42.739Z,85.90
2022-09-11T18:21:12.440Z,86.50
2022-09-11T18:23:44.006Z,86.40
2022-09-11T18:26:21.922Z,86.60
2022-09-11T18:28:50.287Z,86.50
2022-09-11T18:31:19.807Z,86.90
2022-09-11T18:33:54.538Z,86.80
2022-09-11T18:36:23.407Z,85.50
2022-09-11T18:38:53.405Z,84.40
2022-09-11T18:41:22.402Z,83.70
2022-09-11T18:43:50.770Z,83.40
2022-09-11T18:46:18.997Z,83.10
2022-09-11T18:48:47.024Z,82.90
2022-09-11T18:51:15.189Z,82.50
2022-09-11T18:53:43.737Z,82.60
2022-09-11T18:56:13.363Z,83.00
2022-09-11T18:58:41.784Z,82.80
2022-09-11T19:01:12.182Z,82.80
2022-09-11T19:03:41.109Z,82.60
2022-09-11T19:06:12.550Z,82.40
2022-09-11T19:08:41.883Z,82.50
2022-09-11T19:11:13.198Z,82.30
2022-09-11T19:13:42.177Z,82.50
2022-09-11T19:16:10.551Z,82.30
2022-09-11T19:18:39.790Z,82.40
2022-09-11T19:21:10.206Z,82.40
2022-09-11T19:23:40.403Z,82.30
2022-09-11T19:26:13.266Z,82.30
2022-09-11T19:28:44.833Z,82.10
2022-09-11T19:31:17.265Z,82.00
2022-09-11T19:33:45.525Z,82.10
2022-09-11T19:36:17.714Z,82.20
2022-09-11T19:38:47.316Z,82.10
2022-09-11T19:41:20.377Z,82.10
2022-09-11T19:43:50.693Z,82.20
2022-09-11T19:46:20.671Z,82.20
2022-09-11T19:48:49.415Z,82.30
2022-09-11T19:51:21.142Z,82.50
2022-09-11T19:53:52.206Z,82.40
2022-09-11T19:56:20.435Z,82.40
2022-09-11T19:58:49.860Z,82.40
2022-09-11T20:01:25.857Z,83.30
2022-09-11T20:03:55.257Z,82.80
2022-09-11T20:06:35.210Z,83.20
2022-09-11T20:11:52.500Z,83.30
2022-09-11T20:14:21.805Z,83.20
2022-09-11T20:16:49.673Z,83.00
2022-09-11T20:19:17.604Z,83.20
2022-09-11T20:21:45.619Z,83.10
2022-09-11T20:24:14.879Z,83.20
2022-09-11T20:26:44.514Z,83.20
2022-09-11T20:29:19.793Z,83.20
2022-09-11T20:31:51.000Z,83.30
2022-09-11T20:34:27.840Z,83.60
2022-09-11T20:36:56.594Z,83.70
2022-09-11T20:39:24.324Z,83.50
2022-09-11T20:41:55.769Z,83.60
2022-09-11T20:44:25.012Z,83.30
2022-09-11T20:46:57.312Z,83.80
2022-09-11T20:49:25.147Z,83.60
2022-09-11T20:51:52.939Z,83.60
2022-09-11T20:54:20.782Z,83.50
2022-09-11T20:56:48.565Z,83.10
2022-09-11T20:59:16.298Z,84.50
2022-09-11T21:01:44.062Z,84.50
2022-09-11T21:04:13.272Z,84.50
2022-09-11T21:06:41.153Z,84.20
2022-09-11T21:09:11.789Z,84.00
2022-09-11T21:11:41.098Z,84.40
2022-09-11T21:14:09.266Z,84.60
2022-09-11T21:16:37.320Z,84.20
2022-09-11T21:19:06.619Z,84.00
2022-09-11T21:21:37.688Z,83.80
2022-09-11T21:24:08.537Z,83.50
2022-09-11T21:26:36.820Z,83.40
2022-09-11T21:29:06.815Z,84.00
2022-09-11T21:31:35.606Z,83.90
2022-09-11T21:34:03.572Z,84.00
2022-09-11T21:36:32.178Z,84.10
2022-09-11T21:39:01.254Z,84.00
2022-09-11T21:41:29.122Z,84.00
2022-09-11T21:43:56.949Z,83.70
2022-09-11T21:46:25.664Z,83.40
2022-09-11T21:48:53.542Z,84.10
2022-09-11T21:51:21.732Z,84.20
2022-09-11T21:53:50.827Z,84.50
2022-09-11T21:56:24.734Z,85.40
2022-09-11T21:58:53.142Z,84.80
2022-09-11T22:01:22.642Z,84.50
2022-09-11T22:03:50.838Z,85.70
2022-09-11T22:06:19.070Z,86.80
2022-09-11T22:08:47.268Z,85.60
2022-09-11T22:11:15.636Z,86.90
2022-09-11T22:13:45.050Z,87.10
2022-09-11T22:16:15.782Z,85.40
2022-09-11T22:18:47.589Z,85.80
2022-09-11T22:21:15.918Z,85.30
2022-09-11T22:23:43.788Z,84.80
2022-09-11T22:26:13.759Z,84.40
2022-09-11T22:28:41.606Z,86.10
2022-09-11T22:31:13.263Z,86.40
2022-09-11T22:33:41.930Z,86.20
2022-09-11T22:36:11.709Z,85.90
2022-09-11T22:38:39.620Z,85.30
2022-09-11T22:41:07.896Z,85.20
2022-09-11T22:43:35.814Z,85.10
2022-09-11T22:46:03.708Z,84.70
2022-09-11T22:48:33.148Z,84.20
2022-09-11T22:51:01.050Z,84.40
2022-09-11T22:53:29.719Z,84.40
2022-09-11T22:55:58.177Z,84.00
2022-09-11T22:58:26.254Z,84.00
2022-09-11T23:00:56.039Z,84.70
2022-09-11T23:03:24.234Z,85.50
2022-09-11T23:06:14.689Z,85.00
2022-09-11T23:08:42.563Z,85.00
2022-09-11T23:11:11.333Z,84.60
2022-09-11T23:13:39.124Z,84.20
2022-09-11T23:16:13.071Z,83.70
2022-09-11T23:18:40.942Z,84.20
2022-09-11T23:21:10.839Z,83.60
2022-09-11T23:23:42.244Z,84.20
2022-09-11T23:26:10.472Z,84.20
2022-09-11T23:28:38.743Z,84.20
2022-09-11T23:31:12.001Z,83.90
2022-09-11T23:33:39.853Z,83.40
2022-09-11T23:36:08.712Z,85.30
2022-09-11T23:38:38.393Z,84.40
2022-09-11T23:41:07.068Z,85.90
2022-09-11T23:43:34.840Z,86.10
2022-09-11T23:46:02.667Z,85.30
2022-09-11T23:48:30.602Z,87.00
2022-09-11T23:50:58.402Z,86.70
2022-09-11T23:53:26.200Z,88.00
2022-09-11T23:55:56.298Z,87.90
2022-09-11T23:58:24.551Z,89.60
